WetterOnline ( http://www.wetteronline.ch )

Wetter aktuell Fehmarn

Aktuelles Wetter: Westermarkelsdorf (9m)

6-stündlich | Neueste Meldungen
Ortszeit Temperatur Wetter
Mo, 25.03. 1:00 5.2° C bewölkt
So, 24.03. 19:00 6.4° C bewölkt
So, 24.03. 13:00 6.6° C wolkenlos
So, 24.03. 7:00 5.1° C bedeckt
So, 24.03. 1:00 5.4° C bedeckt
Sa, 23.03. 19:00 6.9° C bedeckt
Sa, 23.03. 13:00 8.2° C bedeckt
Sa, 23.03. 7:00 5.7° C bedeckt
Ortszeit Temperatur Wetter
Mo, 25.03. 2:00 5.3° C bewölkt
Mo, 25.03. 1:50 5.3° C bewölkt
Mo, 25.03. 1:40 5.3° C wolkig
Mo, 25.03. 1:30 5.2° C bewölkt
Mo, 25.03. 1:20 5.2° C bewölkt
Mo, 25.03. 1:10 5.2° C bewölkt
Mo, 25.03. 1:00 5.2° C bewölkt
Mo, 25.03. 0:30 5.1° C bedeckt
Mo, 25.03. 0:00 5.3° C leicht bewölkt
So, 24.03. 23:30 5.3° C wolkenlos
So, 24.03. 23:00 5.3° C wolkenlos
Ortszeit Relative Feuchte Sichtweite
Mo, 25.03. 1:00 83% 21 km
So, 24.03. 19:00 72% 40 km
So, 24.03. 13:00 79% 12 km
So, 24.03. 7:00 91% 13 km
So, 24.03. 1:00 89% 13 km
Sa, 23.03. 19:00 79% 70 km
Sa, 23.03. 13:00 87% 3.5 km
Sa, 23.03. 7:00 97% 1.2 km
Ortszeit Relative Feuchte Sichtweite
Mo, 25.03. 2:00 83% 19 km
Mo, 25.03. 1:50 83% -
Mo, 25.03. 1:40 81% -
Mo, 25.03. 1:30 82% 20 km
Mo, 25.03. 1:20 82% -
Mo, 25.03. 1:10 82% -
Mo, 25.03. 1:00 83% 21 km
Mo, 25.03. 0:30 83% 21 km
Mo, 25.03. 0:00 82% 21 km
So, 24.03. 23:30 83% 21 km
So, 24.03. 23:00 82% 22 km
Ortszeit Niederschlagsmenge Niederschlagsart
Mo, 25.03. 1:00 0.0 l/m2 in 6 Std. -
So, 24.03. 19:00 0.0 l/m2 in 12 Std. -
So, 24.03. 13:00 0.0 l/m2 in 6 Std. -
So, 24.03. 7:00 0.0 l/m2 in 12 Std. -
So, 24.03. 1:00 0.0 l/m2 in 6 Std. -
Sa, 23.03. 19:00 0.0 l/m2 in 12 Std. -
Sa, 23.03. 13:00 0.0 l/m2 in 6 Std. -
Sa, 23.03. 7:00 0.0 l/m2 in 12 Std. -
Ortszeit Niederschlagsmenge Niederschlagsart
Mo, 25.03. 2:00 0.0 l/m2 in 1 Std. -
Mo, 25.03. 1:50 keine Meldung -
Mo, 25.03. 1:40 keine Meldung -
Mo, 25.03. 1:30 0.0 l/m2 in 1 Std. -
Mo, 25.03. 1:20 keine Meldung -
Mo, 25.03. 1:10 keine Meldung -
Mo, 25.03. 1:00 0.0 l/m2 in 1 Std. -
Mo, 25.03. 0:30 0.0 l/m2 in 1 Std. -
Mo, 25.03. 0:00 0.0 l/m2 in 1 Std. -
So, 24.03. 23:30 0.0 l/m2 in 1 Std. -
So, 24.03. 23:00 0.0 l/m2 in 1 Std. -
Ortszeit Stärke Spitze Richtung
km/h Bft. km/h Grad Sektor
Mo, 25.03. 1:00 28 4 44 220° SW
So, 24.03. 19:00 30 5 37 260° W
So, 24.03. 13:00 20 4 26 270° W
So, 24.03. 7:00 17 3 26 280° W
So, 24.03. 1:00 22 4 36 290° W
Sa, 23.03. 19:00 29 5 40 290° W
Sa, 23.03. 13:00 22 4 32 260° W
Sa, 23.03. 7:00 22 4 31 290° W
Ortszeit Stärke Spitze Richtung
km/h Bft. km/h Grad Sektor
Mo, 25.03. 2:00 30 5 46 230° SW
Mo, 25.03. 1:50 30 5 - 230° SW
Mo, 25.03. 1:40 32 5 - 230° SW
Mo, 25.03. 1:30 32 5 47 230° SW
Mo, 25.03. 1:20 32 5 - 230° SW
Mo, 25.03. 1:10 30 5 - 230° SW
Mo, 25.03. 1:00 28 4 41 220° SW
Mo, 25.03. 0:30 28 4 41 230° SW
Mo, 25.03. 0:00 28 4 44 240° SW
So, 24.03. 23:30 26 4 44 240° SW
So, 24.03. 23:00 30 5 39 240° SW
Ortszeit Untergrenze Bedeckung Gattung
total tief tief mittel hoch
Mo, 25.03. 1:00 1800 m 8/8 4/8 - - -
So, 24.03. 19:00 3600 m 7/8 7/8 - - -
So, 24.03. 13:00 - 0/8 0/8 - - -
So, 24.03. 7:00 3600 m 8/8 8/8 - - -
So, 24.03. 1:00 4800 m 8/8 8/8 - - -
Sa, 23.03. 19:00 4800 m 8/8 8/8 - - -
Sa, 23.03. 13:00 1260 m 8/8 8/8 - - -
Sa, 23.03. 7:00 60 m 8/8 8/8 - - -
Ortszeit Bedeckungsgrad in Achtel und Wolkenuntergrenze
Mo, 25.03. 2:00 4(1140m) 5(2400m) 8(3300m)
Mo, 25.03. 1:50 4(1140m) 5(2400m) 8(3300m)
Mo, 25.03. 1:40 3(1080m) 8(3300m) 8(3900m)
Mo, 25.03. 1:30 1(990m) 7(1800m) 8(3300m)
Mo, 25.03. 1:20 1(990m) 7(1800m) 8(3300m)
Mo, 25.03. 1:10 7(1800m) 8(3300m)
Mo, 25.03. 1:00 4(1800m) 8(3300m)
Mo, 25.03. 0:30 8(3000m)
Mo, 25.03. 0:00 4(3300m)
So, 24.03. 23:30 keine Wolken
So, 24.03. 23:00 keine Wolken
Ortszeit Luftdruck NN (hPa) Tendenz (hPa in 3 Std.)
Mo, 25.03. 1:00 1013 - 4,7
So, 24.03. 19:00 1021 - 2,1
So, 24.03. 13:00 1026 - 2,1
So, 24.03. 7:00 1029 - 0,6
So, 24.03. 1:00 1030 - 0,1
Sa, 23.03. 19:00 1029 + 1,1
Sa, 23.03. 13:00 1027 + 1,5
Sa, 23.03. 7:00 1025 + 0,8
Ortszeit Luftdruck NN (hPa) Tendenz (hPa in 3 Std.)
Mo, 25.03. 2:00 1012 - 5,1
Mo, 25.03. 1:50 1012 keine Meldung
Mo, 25.03. 1:40 1012 keine Meldung
Mo, 25.03. 1:30 1013 - 5,0
Mo, 25.03. 1:20 1013 keine Meldung
Mo, 25.03. 1:10 1013 keine Meldung
Mo, 25.03. 1:00 1013 - 4,7
Mo, 25.03. 0:30 1014 - 4,4
Mo, 25.03. 0:00 1015 - 3,8
So, 24.03. 23:30 1016 - 3,5
So, 24.03. 23:00 1017 - 3,1
Ortszeit Schneehöhe (cm)
Mo, 25.03. 1:00 0
So, 24.03. 19:00 0
So, 24.03. 13:00 0
So, 24.03. 7:00 0
So, 24.03. 1:00 0
Sa, 23.03. 19:00 0
Sa, 23.03. 13:00 0
Sa, 23.03. 7:00 0
Ortszeit Schneehöhe (cm)
Mo, 25.03. 2:00 0
Mo, 25.03. 1:50 0
Mo, 25.03. 1:40 0
Mo, 25.03. 1:30 0
Mo, 25.03. 1:20 0
Mo, 25.03. 1:10 0
Mo, 25.03. 1:00 0
Mo, 25.03. 0:30 0
Mo, 25.03. 0:00 0
So, 24.03. 23:30 0
So, 24.03. 23:00 0
Link zu dieser Seite / Seite empfehlen

Das Wetter in ...